sensor_id;sensor_type;location;lat;lon;timestamp;P1;durP1;ratioP1;P2;durP2;ratioP2
51286;SDS011;37364;46.974;18.916;2024-03-02T00:02:24;43.80;;;25.60;;
51286;SDS011;37364;46.974;18.916;2024-03-02T00:04:54;36.88;;;24.48;;
51286;SDS011;37364;46.974;18.916;2024-03-02T00:07:24;37.03;;;24.73;;
51286;SDS011;37364;46.974;18.916;2024-03-02T00:09:54;39.20;;;25.05;;
51286;SDS011;37364;46.974;18.916;2024-03-02T00:12:25;36.28;;;23.98;;
51286;SDS011;37364;46.974;18.916;2024-03-02T00:14:57;39.42;;;24.42;;
51286;SDS011;37364;46.974;18.916;2024-03-02T00:17:29;35.20;;;25.38;;
51286;SDS011;37364;46.974;18.916;2024-03-02T00:19:59;43.05;;;25.70;;
51286;SDS011;37364;46.974;18.916;2024-03-02T00:22:29;44.65;;;25.83;;
51286;SDS011;37364;46.974;18.916;2024-03-02T00:24:59;39.42;;;25.20;;
51286;SDS011;37364;46.974;18.916;2024-03-02T00:27:29;41.25;;;25.58;;
51286;SDS011;37364;46.974;18.916;2024-03-02T00:30:02;42.35;;;25.95;;
51286;SDS011;37364;46.974;18.916;2024-03-02T00:32:55;38.13;;;24.77;;
51286;SDS011;37364;46.974;18.916;2024-03-02T00:35:26;37.63;;;25.30;;
51286;SDS011;37364;46.974;18.916;2024-03-02T00:37:55;42.97;;;25.25;;
51286;SDS011;37364;46.974;18.916;2024-03-02T00:40:26;35.28;;;24.60;;
51286;SDS011;37364;46.974;18.916;2024-03-02T00:42:59;48.45;;;27.60;;
51286;SDS011;37364;46.974;18.916;2024-03-02T00:45:32;42.80;;;25.90;;
51286;SDS011;37364;46.974;18.916;2024-03-02T00:48:02;39.63;;;25.85;;
51286;SDS011;37364;46.974;18.916;2024-03-02T00:50:33;38.53;;;24.80;;
51286;SDS011;37364;46.974;18.916;2024-03-02T00:53:03;43.58;;;26.23;;
51286;SDS011;37364;46.974;18.916;2024-03-02T00:55:35;40.65;;;25.80;;
51286;SDS011;37364;46.974;18.916;2024-03-02T00:58:10;41.13;;;26.63;;
51286;SDS011;37364;46.974;18.916;2024-03-02T01:00:43;39.25;;;25.85;;
51286;SDS011;37364;46.974;18.916;2024-03-02T01:03:13;39.40;;;24.65;;
51286;SDS011;37364;46.974;18.916;2024-03-02T01:05:44;37.88;;;26.48;;
51286;SDS011;37364;46.974;18.916;2024-03-02T01:08:15;45.75;;;26.77;;
51286;SDS011;37364;46.974;18.916;2024-03-02T01:10:46;39.60;;;26.65;;
51286;SDS011;37364;46.974;18.916;2024-03-02T01:13:16;37.22;;;25.98;;
51286;SDS011;37364;46.974;18.916;2024-03-02T01:15:49;37.60;;;26.15;;
51286;SDS011;37364;46.974;18.916;2024-03-02T01:18:20;41.50;;;25.83;;
51286;SDS011;37364;46.974;18.916;2024-03-02T01:20:50;37.72;;;26.27;;
51286;SDS011;37364;46.974;18.916;2024-03-02T01:23:22;39.63;;;25.80;;
51286;SDS011;37364;46.974;18.916;2024-03-02T01:25:52;35.28;;;26.10;;
51286;SDS011;37364;46.974;18.916;2024-03-02T01:28:23;39.70;;;26.58;;
51286;SDS011;37364;46.974;18.916;2024-03-02T01:30:55;44.45;;;26.42;;
51286;SDS011;37364;46.974;18.916;2024-03-02T01:33:25;42.13;;;28.38;;
51286;SDS011;37364;46.974;18.916;2024-03-02T01:35:55;40.65;;;26.08;;
51286;SDS011;37364;46.974;18.916;2024-03-02T01:38:26;49.63;;;28.15;;
51286;SDS011;37364;46.974;18.916;2024-03-02T01:40:58;44.58;;;26.85;;
51286;SDS011;37364;46.974;18.916;2024-03-02T01:43:28;37.88;;;25.83;;
51286;SDS011;37364;46.974;18.916;2024-03-02T01:46:00;38.85;;;26.15;;
51286;SDS011;37364;46.974;18.916;2024-03-02T01:48:30;43.08;;;27.60;;
51286;SDS011;37364;46.974;18.916;2024-03-02T01:51:00;48.05;;;27.33;;
51286;SDS011;37364;46.974;18.916;2024-03-02T01:53:33;36.83;;;26.50;;
51286;SDS011;37364;46.974;18.916;2024-03-02T01:56:03;45.45;;;27.58;;
51286;SDS011;37364;46.974;18.916;2024-03-02T01:58:33;47.72;;;27.35;;
51286;SDS011;37364;46.974;18.916;2024-03-02T02:01:06;42.35;;;26.20;;
51286;SDS011;37364;46.974;18.916;2024-03-02T02:03:37;43.75;;;28.92;;
51286;SDS011;37364;46.974;18.916;2024-03-02T02:06:07;43.03;;;27.55;;
51286;SDS011;37364;46.974;18.916;2024-03-02T02:08:37;40.38;;;27.33;;
51286;SDS011;37364;46.974;18.916;2024-03-02T02:11:07;42.20;;;26.90;;
51286;SDS011;37364;46.974;18.916;2024-03-02T02:13:38;41.00;;;26.40;;
51286;SDS011;37364;46.974;18.916;2024-03-02T02:16:10;44.13;;;28.52;;
51286;SDS011;37364;46.974;18.916;2024-03-02T02:18:40;40.30;;;26.20;;
51286;SDS011;37364;46.974;18.916;2024-03-02T02:21:10;40.10;;;27.83;;
51286;SDS011;37364;46.974;18.916;2024-03-02T02:23:43;45.38;;;28.52;;
51286;SDS011;37364;46.974;18.916;2024-03-02T02:26:15;47.60;;;29.55;;
51286;SDS011;37364;46.974;18.916;2024-03-02T02:28:45;43.03;;;28.77;;
51286;SDS011;37364;46.974;18.916;2024-03-02T02:31:16;45.72;;;28.02;;
51286;SDS011;37364;46.974;18.916;2024-03-02T02:33:46;45.60;;;29.13;;
51286;SDS011;37364;46.974;18.916;2024-03-02T02:36:16;50.63;;;30.80;;
51286;SDS011;37364;46.974;18.916;2024-03-02T02:38:49;45.25;;;28.80;;
51286;SDS011;37364;46.974;18.916;2024-03-02T02:41:20;46.93;;;31.53;;
51286;SDS011;37364;46.974;18.916;2024-03-02T02:43:50;44.83;;;30.15;;
51286;SDS011;37364;46.974;18.916;2024-03-02T02:46:20;55.97;;;31.92;;
51286;SDS011;37364;46.974;18.916;2024-03-02T02:48:49;49.28;;;30.83;;
51286;SDS011;37364;46.974;18.916;2024-03-02T02:51:20;50.35;;;32.67;;
51286;SDS011;37364;46.974;18.916;2024-03-02T02:53:54;50.53;;;29.35;;
51286;SDS011;37364;46.974;18.916;2024-03-02T02:56:24;54.47;;;33.17;;
51286;SDS011;37364;46.974;18.916;2024-03-02T02:58:54;46.17;;;32.90;;
51286;SDS011;37364;46.974;18.916;2024-03-02T03:01:26;45.72;;;32.65;;
51286;SDS011;37364;46.974;18.916;2024-03-02T03:03:56;52.13;;;31.13;;
51286;SDS011;37364;46.974;18.916;2024-03-02T03:06:26;47.35;;;32.80;;
51286;SDS011;37364;46.974;18.916;2024-03-02T03:08:59;48.83;;;30.55;;
51286;SDS011;37364;46.974;18.916;2024-03-02T03:11:29;51.03;;;31.40;;
51286;SDS011;37364;46.974;18.916;2024-03-02T03:13:59;50.85;;;30.80;;
51286;SDS011;37364;46.974;18.916;2024-03-02T03:16:31;54.67;;;32.40;;
51286;SDS011;37364;46.974;18.916;2024-03-02T03:19:01;58.28;;;33.10;;
51286;SDS011;37364;46.974;18.916;2024-03-02T03:21:31;50.13;;;32.67;;
51286;SDS011;37364;46.974;18.916;2024-03-02T03:24:04;51.53;;;31.67;;
51286;SDS011;37364;46.974;18.916;2024-03-02T03:26:35;56.42;;;32.97;;
51286;SDS011;37364;46.974;18.916;2024-03-02T03:29:05;50.42;;;32.22;;
51286;SDS011;37364;46.974;18.916;2024-03-02T03:31:35;50.10;;;31.90;;
51286;SDS011;37364;46.974;18.916;2024-03-02T03:34:05;45.15;;;30.38;;
51286;SDS011;37364;46.974;18.916;2024-03-02T03:36:35;53.22;;;31.73;;
51286;SDS011;37364;46.974;18.916;2024-03-02T03:39:09;47.17;;;33.08;;
51286;SDS011;37364;46.974;18.916;2024-03-02T03:41:40;55.35;;;34.60;;
51286;SDS011;37364;46.974;18.916;2024-03-02T03:44:11;43.53;;;30.08;;
51286;SDS011;37364;46.974;18.916;2024-03-02T03:46:41;57.97;;;33.88;;
51286;SDS011;37364;46.974;18.916;2024-03-02T03:49:11;51.33;;;33.78;;
51286;SDS011;37364;46.974;18.916;2024-03-02T03:51:41;48.22;;;32.95;;
51286;SDS011;37364;46.974;18.916;2024-03-02T03:54:14;63.20;;;34.08;;
51286;SDS011;37364;46.974;18.916;2024-03-02T03:56:44;62.85;;;32.80;;
51286;SDS011;37364;46.974;18.916;2024-03-02T03:59:14;51.42;;;34.75;;
51286;SDS011;37364;46.974;18.916;2024-03-02T04:01:44;57.03;;;33.08;;
51286;SDS011;37364;46.974;18.916;2024-03-02T04:04:14;58.40;;;37.33;;
51286;SDS011;37364;46.974;18.916;2024-03-02T04:06:44;62.70;;;37.03;;
51286;SDS011;37364;46.974;18.916;2024-03-02T04:09:17;55.10;;;35.00;;
51286;SDS011;37364;46.974;18.916;2024-03-02T04:11:47;64.65;;;37.67;;
51286;SDS011;37364;46.974;18.916;2024-03-02T04:14:18;55.13;;;36.50;;
51286;SDS011;37364;46.974;18.916;2024-03-02T04:16:48;59.33;;;37.08;;
51286;SDS011;37364;46.974;18.916;2024-03-02T04:19:18;62.55;;;36.53;;
51286;SDS011;37364;46.974;18.916;2024-03-02T04:21:48;65.22;;;36.60;;
51286;SDS011;37364;46.974;18.916;2024-03-02T04:24:20;56.83;;;39.00;;
51286;SDS011;37364;46.974;18.916;2024-03-02T04:26:50;56.85;;;35.90;;
51286;SDS011;37364;46.974;18.916;2024-03-02T04:29:20;55.28;;;36.80;;
51286;SDS011;37364;46.974;18.916;2024-03-02T04:31:50;59.72;;;37.10;;
51286;SDS011;37364;46.974;18.916;2024-03-02T04:34:21;52.38;;;35.08;;
51286;SDS011;37364;46.974;18.916;2024-03-02T04:36:51;55.83;;;37.78;;
51286;SDS011;37364;46.974;18.916;2024-03-02T04:39:23;65.75;;;38.72;;
51286;SDS011;37364;46.974;18.916;2024-03-02T04:41:54;61.42;;;39.78;;
51286;SDS011;37364;46.974;18.916;2024-03-02T04:44:25;71.43;;;38.65;;
51286;SDS011;37364;46.974;18.916;2024-03-02T04:46:55;71.93;;;39.75;;
51286;SDS011;37364;46.974;18.916;2024-03-02T04:49:25;71.60;;;40.90;;
51286;SDS011;37364;46.974;18.916;2024-03-02T04:51:55;63.88;;;39.55;;
51286;SDS011;37364;46.974;18.916;2024-03-02T04:54:28;62.10;;;40.13;;
51286;SDS011;37364;46.974;18.916;2024-03-02T04:56:58;65.55;;;41.15;;
51286;SDS011;37364;46.974;18.916;2024-03-02T04:59:28;68.65;;;41.92;;
51286;SDS011;37364;46.974;18.916;2024-03-02T05:01:58;69.20;;;42.92;;
51286;SDS011;37364;46.974;18.916;2024-03-02T05:04:28;72.82;;;44.15;;
51286;SDS011;37364;46.974;18.916;2024-03-02T05:06:58;72.65;;;41.15;;
51286;SDS011;37364;46.974;18.916;2024-03-02T05:09:30;71.15;;;43.88;;
51286;SDS011;37364;46.974;18.916;2024-03-02T05:12:00;76.63;;;41.83;;
51286;SDS011;37364;46.974;18.916;2024-03-02T05:14:56;68.07;;;43.15;;
51286;SDS011;37364;46.974;18.916;2024-03-02T05:17:26;67.57;;;42.78;;
51286;SDS011;37364;46.974;18.916;2024-03-02T05:19:56;69.82;;;44.15;;
51286;SDS011;37364;46.974;18.916;2024-03-02T05:22:26;74.63;;;41.55;;
51286;SDS011;37364;46.974;18.916;2024-03-02T05:24:58;66.53;;;42.92;;
51286;SDS011;37364;46.974;18.916;2024-03-02T05:27:29;69.70;;;41.10;;
51286;SDS011;37364;46.974;18.916;2024-03-02T05:29:59;71.47;;;42.92;;
51286;SDS011;37364;46.974;18.916;2024-03-02T05:32:30;71.47;;;42.33;;
51286;SDS011;37364;46.974;18.916;2024-03-02T05:35:00;66.43;;;41.50;;
51286;SDS011;37364;46.974;18.916;2024-03-02T05:37:31;70.93;;;42.22;;
51286;SDS011;37364;46.974;18.916;2024-03-02T05:40:06;68.10;;;43.17;;
51286;SDS011;37364;46.974;18.916;2024-03-02T05:42:37;67.20;;;40.47;;
51286;SDS011;37364;46.974;18.916;2024-03-02T05:45:08;69.63;;;42.13;;
51286;SDS011;37364;46.974;18.916;2024-03-02T05:47:39;61.30;;;40.53;;
51286;SDS011;37364;46.974;18.916;2024-03-02T05:50:09;69.90;;;42.60;;
51286;SDS011;37364;46.974;18.916;2024-03-02T05:52:39;74.15;;;46.63;;
51286;SDS011;37364;46.974;18.916;2024-03-02T05:55:11;68.63;;;43.25;;
51286;SDS011;37364;46.974;18.916;2024-03-02T05:57:41;70.72;;;43.40;;
51286;SDS011;37364;46.974;18.916;2024-03-02T06:00:29;69.85;;;42.13;;
51286;SDS011;37364;46.974;18.916;2024-03-02T06:03:04;70.43;;;45.35;;
51286;SDS011;37364;46.974;18.916;2024-03-02T06:05:36;71.57;;;44.90;;
51286;SDS011;37364;46.974;18.916;2024-03-02T06:08:07;73.60;;;43.72;;
51286;SDS011;37364;46.974;18.916;2024-03-02T06:10:40;67.97;;;43.33;;
51286;SDS011;37364;46.974;18.916;2024-03-02T06:13:10;63.83;;;42.40;;
51286;SDS011;37364;46.974;18.916;2024-03-02T06:15:40;76.30;;;43.60;;
51286;SDS011;37364;46.974;18.916;2024-03-02T06:18:10;75.45;;;43.13;;
51286;SDS011;37364;46.974;18.916;2024-03-02T06:20:41;74.68;;;45.45;;
51286;SDS011;37364;46.974;18.916;2024-03-02T06:23:11;105.85;;;67.00;;
51286;SDS011;37364;46.974;18.916;2024-03-02T06:25:43;73.65;;;46.30;;
51286;SDS011;37364;46.974;18.916;2024-03-02T06:28:13;68.35;;;43.25;;
51286;SDS011;37364;46.974;18.916;2024-03-02T06:30:44;73.32;;;42.38;;
51286;SDS011;37364;46.974;18.916;2024-03-02T06:33:14;77.10;;;43.90;;
51286;SDS011;37364;46.974;18.916;2024-03-02T06:35:44;75.03;;;53.08;;
51286;SDS011;37364;46.974;18.916;2024-03-02T06:38:15;75.70;;;47.50;;
51286;SDS011;37364;46.974;18.916;2024-03-02T06:40:48;67.97;;;45.08;;
51286;SDS011;37364;46.974;18.916;2024-03-02T06:43:18;73.95;;;45.13;;
51286;SDS011;37364;46.974;18.916;2024-03-02T06:45:49;72.07;;;45.17;;
51286;SDS011;37364;46.974;18.916;2024-03-02T06:48:21;72.95;;;45.63;;
51286;SDS011;37364;46.974;18.916;2024-03-02T06:50:51;65.10;;;43.90;;
51286;SDS011;37364;46.974;18.916;2024-03-02T06:53:22;76.13;;;48.08;;
51286;SDS011;37364;46.974;18.916;2024-03-02T06:55:55;68.20;;;44.17;;
51286;SDS011;37364;46.974;18.916;2024-03-02T06:58:25;74.38;;;48.35;;
51286;SDS011;37364;46.974;18.916;2024-03-02T07:00:55;81.38;;;47.53;;
51286;SDS011;37364;46.974;18.916;2024-03-02T07:03:27;74.95;;;44.80;;
51286;SDS011;37364;46.974;18.916;2024-03-02T07:05:57;71.95;;;45.90;;
51286;SDS011;37364;46.974;18.916;2024-03-02T07:08:27;88.28;;;48.50;;
51286;SDS011;37364;46.974;18.916;2024-03-02T07:10:59;69.55;;;46.17;;
51286;SDS011;37364;46.974;18.916;2024-03-02T07:13:31;72.78;;;46.40;;
51286;SDS011;37364;46.974;18.916;2024-03-02T07:16:01;86.85;;;50.83;;
51286;SDS011;37364;46.974;18.916;2024-03-02T07:18:46;71.60;;;44.13;;
51286;SDS011;37364;46.974;18.916;2024-03-02T07:21:18;65.57;;;45.15;;
51286;SDS011;37364;46.974;18.916;2024-03-02T07:23:49;80.88;;;46.28;;
51286;SDS011;37364;46.974;18.916;2024-03-02T07:26:21;76.63;;;45.13;;
51286;SDS011;37364;46.974;18.916;2024-03-02T07:28:54;73.00;;;44.53;;
51286;SDS011;37364;46.974;18.916;2024-03-02T07:31:24;67.95;;;44.13;;
51286;SDS011;37364;46.974;18.916;2024-03-02T07:33:54;70.53;;;46.28;;
51286;SDS011;37364;46.974;18.916;2024-03-02T07:36:24;71.55;;;46.13;;
51286;SDS011;37364;46.974;18.916;2024-03-02T07:38:55;70.47;;;45.33;;
51286;SDS011;37364;46.974;18.916;2024-03-02T07:41:27;68.32;;;46.28;;
51286;SDS011;37364;46.974;18.916;2024-03-02T07:43:57;65.97;;;45.45;;
51286;SDS011;37364;46.974;18.916;2024-03-02T07:46:28;70.05;;;46.00;;
51286;SDS011;37364;46.974;18.916;2024-03-02T07:48:58;71.32;;;45.33;;
51286;SDS011;37364;46.974;18.916;2024-03-02T07:51:28;70.05;;;45.67;;
51286;SDS011;37364;46.974;18.916;2024-03-02T07:53:58;63.97;;;42.55;;
51286;SDS011;37364;46.974;18.916;2024-03-02T07:56:30;68.28;;;48.53;;
51286;SDS011;37364;46.974;18.916;2024-03-02T08:01:31;134.63;;;78.18;;
51286;SDS011;37364;46.974;18.916;2024-03-02T08:04:02;126.13;;;77.75;;
51286;SDS011;37364;46.974;18.916;2024-03-02T08:06:32;74.88;;;52.40;;
51286;SDS011;37364;46.974;18.916;2024-03-02T08:09:02;70.43;;;48.92;;
51286;SDS011;37364;46.974;18.916;2024-03-02T08:11:39;59.00;;;46.13;;
51286;SDS011;37364;46.974;18.916;2024-03-02T08:14:09;66.85;;;44.17;;
51286;SDS011;37364;46.974;18.916;2024-03-02T08:16:39;69.68;;;45.75;;
51286;SDS011;37364;46.974;18.916;2024-03-02T08:19:09;83.35;;;55.45;;
51286;SDS011;37364;46.974;18.916;2024-03-02T08:21:39;56.78;;;42.75;;
51286;SDS011;37364;46.974;18.916;2024-03-02T08:24:10;56.97;;;41.35;;
51286;SDS011;37364;46.974;18.916;2024-03-02T08:26:45;74.30;;;54.17;;
51286;SDS011;37364;46.974;18.916;2024-03-02T08:29:15;100.63;;;69.90;;
51286;SDS011;37364;46.974;18.916;2024-03-02T08:31:45;100.30;;;64.90;;
51286;SDS011;37364;46.974;18.916;2024-03-02T08:34:16;116.22;;;74.18;;
51286;SDS011;37364;46.974;18.916;2024-03-02T08:36:46;187.95;;;107.60;;
51286;SDS011;37364;46.974;18.916;2024-03-02T08:39:16;211.20;;;114.82;;
51286;SDS011;37364;46.974;18.916;2024-03-02T08:41:52;85.43;;;57.20;;
51286;SDS011;37364;46.974;18.916;2024-03-02T08:44:22;67.10;;;42.63;;
51286;SDS011;37364;46.974;18.916;2024-03-02T08:46:52;56.92;;;42.40;;
51286;SDS011;37364;46.974;18.916;2024-03-02T08:49:22;65.03;;;49.08;;
51286;SDS011;37364;46.974;18.916;2024-03-02T08:51:52;64.35;;;52.42;;
51286;SDS011;37364;46.974;18.916;2024-03-02T08:54:23;60.10;;;50.05;;
51286;SDS011;37364;46.974;18.916;2024-03-02T08:56:57;54.22;;;45.50;;
51286;SDS011;37364;46.974;18.916;2024-03-02T08:59:27;50.50;;;41.60;;
51286;SDS011;37364;46.974;18.916;2024-03-02T09:01:58;48.30;;;35.83;;
51286;SDS011;37364;46.974;18.916;2024-03-02T09:04:28;54.67;;;41.38;;
51286;SDS011;37364;46.974;18.916;2024-03-02T09:07:01;45.88;;;36.80;;
51286;SDS011;37364;46.974;18.916;2024-03-02T09:09:33;49.33;;;36.55;;
51286;SDS011;37364;46.974;18.916;2024-03-02T09:12:08;95.32;;;65.05;;
51286;SDS011;37364;46.974;18.916;2024-03-02T09:14:38;56.00;;;44.58;;
51286;SDS011;37364;46.974;18.916;2024-03-02T09:17:08;58.40;;;50.67;;
51286;SDS011;37364;46.974;18.916;2024-03-02T09:19:39;39.25;;;33.85;;
51286;SDS011;37364;46.974;18.916;2024-03-02T09:22:09;38.15;;;33.65;;
51286;SDS011;37364;46.974;18.916;2024-03-02T09:24:39;45.78;;;37.80;;
51286;SDS011;37364;46.974;18.916;2024-03-02T09:27:14;37.30;;;32.30;;
51286;SDS011;37364;46.974;18.916;2024-03-02T09:29:44;77.72;;;55.95;;
51286;SDS011;37364;46.974;18.916;2024-03-02T09:32:14;47.45;;;38.35;;
51286;SDS011;37364;46.974;18.916;2024-03-02T09:34:44;43.53;;;36.35;;
51286;SDS011;37364;46.974;18.916;2024-03-02T09:37:14;38.13;;;32.90;;
51286;SDS011;37364;46.974;18.916;2024-03-02T09:39:47;46.05;;;38.03;;
51286;SDS011;37364;46.974;18.916;2024-03-02T09:42:19;183.27;;;100.93;;
51286;SDS011;37364;46.974;18.916;2024-03-02T09:44:50;83.72;;;59.33;;
51286;SDS011;37364;46.974;18.916;2024-03-02T09:47:21;50.58;;;40.70;;
51286;SDS011;37364;46.974;18.916;2024-03-02T09:49:51;44.05;;;36.08;;
51286;SDS011;37364;46.974;18.916;2024-03-02T09:52:22;49.65;;;39.08;;
51286;SDS011;37364;46.974;18.916;2024-03-02T09:54:52;42.78;;;37.35;;
51286;SDS011;37364;46.974;18.916;2024-03-02T09:57:24;40.25;;;33.63;;
51286;SDS011;37364;46.974;18.916;2024-03-02T09:59:54;54.03;;;45.95;;
51286;SDS011;37364;46.974;18.916;2024-03-02T10:02:24;41.22;;;34.15;;
51286;SDS011;37364;46.974;18.916;2024-03-02T10:04:54;42.35;;;34.53;;
51286;SDS011;37364;46.974;18.916;2024-03-02T10:07:24;36.65;;;30.52;;
51286;SDS011;37364;46.974;18.916;2024-03-02T10:09:54;39.90;;;33.03;;
51286;SDS011;37364;46.974;18.916;2024-03-02T10:12:28;44.10;;;35.00;;
51286;SDS011;37364;46.974;18.916;2024-03-02T10:15:03;43.55;;;33.20;;
51286;SDS011;37364;46.974;18.916;2024-03-02T10:17:37;122.20;;;84.25;;
51286;SDS011;37364;46.974;18.916;2024-03-02T10:20:22;46.40;;;36.83;;
51286;SDS011;37364;46.974;18.916;2024-03-02T10:22:52;44.13;;;35.35;;
51286;SDS011;37364;46.974;18.916;2024-03-02T10:25:29;37.33;;;29.60;;
51286;SDS011;37364;46.974;18.916;2024-03-02T10:28:09;36.85;;;29.73;;
51286;SDS011;37364;46.974;18.916;2024-03-02T10:30:39;37.72;;;32.38;;
51286;SDS011;37364;46.974;18.916;2024-03-02T10:33:12;55.00;;;42.92;;
51286;SDS011;37364;46.974;18.916;2024-03-02T10:35:42;38.17;;;32.00;;
51286;SDS011;37364;46.974;18.916;2024-03-02T10:38:14;37.72;;;31.60;;
51286;SDS011;37364;46.974;18.916;2024-03-02T10:40:46;37.10;;;31.33;;
51286;SDS011;37364;46.974;18.916;2024-03-02T10:43:19;37.92;;;32.22;;
51286;SDS011;37364;46.974;18.916;2024-03-02T10:45:50;43.72;;;35.22;;
51286;SDS011;37364;46.974;18.916;2024-03-02T10:48:22;47.63;;;42.50;;
51286;SDS011;37364;46.974;18.916;2024-03-02T10:50:54;38.30;;;32.70;;
51286;SDS011;37364;46.974;18.916;2024-03-02T10:53:28;34.80;;;31.08;;
51286;SDS011;37364;46.974;18.916;2024-03-02T10:55:58;41.22;;;34.60;;
51286;SDS011;37364;46.974;18.916;2024-03-02T11:01:23;38.03;;;31.40;;
51286;SDS011;37364;46.974;18.916;2024-03-02T11:03:54;36.03;;;31.67;;
51286;SDS011;37364;46.974;18.916;2024-03-02T11:06:26;34.92;;;31.13;;
51286;SDS011;37364;46.974;18.916;2024-03-02T11:09:00;34.30;;;29.45;;
51286;SDS011;37364;46.974;18.916;2024-03-02T11:11:37;37.10;;;31.80;;
51286;SDS011;37364;46.974;18.916;2024-03-02T11:14:13;35.35;;;30.98;;
51286;SDS011;37364;46.974;18.916;2024-03-02T11:16:48;36.45;;;32.67;;
51286;SDS011;37364;46.974;18.916;2024-03-02T11:19:19;41.28;;;30.92;;
51286;SDS011;37364;46.974;18.916;2024-03-02T11:21:49;40.50;;;35.58;;
51286;SDS011;37364;46.974;18.916;2024-03-02T11:24:30;101.45;;;65.53;;
51286;SDS011;37364;46.974;18.916;2024-03-02T11:27:05;58.00;;;40.22;;
51286;SDS011;37364;46.974;18.916;2024-03-02T11:29:42;34.95;;;28.50;;
51286;SDS011;37364;46.974;18.916;2024-03-02T11:32:16;160.55;;;85.53;;
51286;SDS011;37364;46.974;18.916;2024-03-02T11:34:50;164.68;;;105.18;;
51286;SDS011;37364;46.974;18.916;2024-03-02T11:37:20;39.22;;;32.70;;
51286;SDS011;37364;46.974;18.916;2024-03-02T11:39:50;37.10;;;33.00;;
51286;SDS011;37364;46.974;18.916;2024-03-02T11:42:21;54.10;;;45.67;;
51286;SDS011;37364;46.974;18.916;2024-03-02T11:44:53;126.13;;;73.70;;
51286;SDS011;37364;46.974;18.916;2024-03-02T11:47:29;174.33;;;108.50;;
51286;SDS011;37364;46.974;18.916;2024-03-02T11:50:05;64.25;;;49.30;;
51286;SDS011;37364;46.974;18.916;2024-03-02T11:52:36;108.32;;;77.22;;
51286;SDS011;37364;46.974;18.916;2024-03-02T11:55:09;43.78;;;36.25;;
51286;SDS011;37364;46.974;18.916;2024-03-02T11:57:41;42.65;;;38.10;;
51286;SDS011;37364;46.974;18.916;2024-03-02T12:00:16;47.25;;;39.63;;
51286;SDS011;37364;46.974;18.916;2024-03-02T12:02:59;47.03;;;40.75;;
51286;SDS011;37364;46.974;18.916;2024-03-02T12:05:30;51.58;;;42.85;;
51286;SDS011;37364;46.974;18.916;2024-03-02T12:08:01;51.70;;;42.13;;
51286;SDS011;37364;46.974;18.916;2024-03-02T12:10:33;55.50;;;44.22;;
51286;SDS011;37364;46.974;18.916;2024-03-02T12:13:05;41.90;;;36.50;;
51286;SDS011;37364;46.974;18.916;2024-03-02T12:15:38;50.78;;;39.95;;
51286;SDS011;37364;46.974;18.916;2024-03-02T12:20:45;46.03;;;36.80;;
51286;SDS011;37364;46.974;18.916;2024-03-02T12:23:15;40.78;;;35.83;;
51286;SDS011;37364;46.974;18.916;2024-03-02T12:25:45;54.53;;;42.97;;
51286;SDS011;37364;46.974;18.916;2024-03-02T12:28:15;173.80;;;86.00;;
51286;SDS011;37364;46.974;18.916;2024-03-02T12:30:46;154.57;;;80.30;;
51286;SDS011;37364;46.974;18.916;2024-03-02T12:33:20;85.80;;;54.70;;
51286;SDS011;37364;46.974;18.916;2024-03-02T12:35:50;180.18;;;90.00;;
51286;SDS011;37364;46.974;18.916;2024-03-02T12:38:20;170.05;;;96.07;;
51286;SDS011;37364;46.974;18.916;2024-03-02T12:40:52;79.32;;;54.15;;
51286;SDS011;37364;46.974;18.916;2024-03-02T12:43:22;64.90;;;51.72;;
51286;SDS011;37364;46.974;18.916;2024-03-02T12:45:52;63.88;;;49.92;;
51286;SDS011;37364;46.974;18.916;2024-03-02T12:48:26;64.13;;;46.78;;
51286;SDS011;37364;46.974;18.916;2024-03-02T12:50:56;65.80;;;51.88;;
51286;SDS011;37364;46.974;18.916;2024-03-02T12:53:26;58.33;;;44.95;;
51286;SDS011;37364;46.974;18.916;2024-03-02T12:55:56;78.97;;;56.38;;
51286;SDS011;37364;46.974;18.916;2024-03-02T12:58:27;67.05;;;52.88;;
51286;SDS011;37364;46.974;18.916;2024-03-02T13:01:05;64.20;;;50.10;;
51286;SDS011;37364;46.974;18.916;2024-03-02T13:03:41;70.95;;;54.63;;
51286;SDS011;37364;46.974;18.916;2024-03-02T13:06:11;68.95;;;54.35;;
51286;SDS011;37364;46.974;18.916;2024-03-02T13:08:41;76.15;;;57.83;;
51286;SDS011;37364;46.974;18.916;2024-03-02T13:11:12;78.32;;;56.63;;
51286;SDS011;37364;46.974;18.916;2024-03-02T13:13:42;73.22;;;57.13;;
51286;SDS011;37364;46.974;18.916;2024-03-02T13:16:12;75.50;;;55.75;;
51286;SDS011;37364;46.974;18.916;2024-03-02T13:18:45;73.05;;;55.15;;
51286;SDS011;37364;46.974;18.916;2024-03-02T13:21:15;89.88;;;66.85;;
51286;SDS011;37364;46.974;18.916;2024-03-02T13:23:45;77.28;;;57.40;;
51286;SDS011;37364;46.974;18.916;2024-03-02T13:26:15;82.53;;;60.10;;
51286;SDS011;37364;46.974;18.916;2024-03-02T13:28:45;95.13;;;65.18;;
51286;SDS011;37364;46.974;18.916;2024-03-02T13:31:16;93.85;;;65.63;;
51286;SDS011;37364;46.974;18.916;2024-03-02T13:33:48;100.88;;;70.15;;
51286;SDS011;37364;46.974;18.916;2024-03-02T13:36:19;92.85;;;64.95;;
51286;SDS011;37364;46.974;18.916;2024-03-02T13:38:50;103.05;;;68.40;;
51286;SDS011;37364;46.974;18.916;2024-03-02T13:41:20;96.03;;;66.90;;
51286;SDS011;37364;46.974;18.916;2024-03-02T13:43:50;97.30;;;68.80;;
51286;SDS011;37364;46.974;18.916;2024-03-02T13:46:20;118.32;;;73.05;;
51286;SDS011;37364;46.974;18.916;2024-03-02T13:48:53;99.65;;;67.15;;
51286;SDS011;37364;46.974;18.916;2024-03-02T13:51:24;97.57;;;69.78;;
51286;SDS011;37364;46.974;18.916;2024-03-02T13:53:54;99.45;;;69.30;;
51286;SDS011;37364;46.974;18.916;2024-03-02T13:56:24;104.80;;;72.32;;
51286;SDS011;37364;46.974;18.916;2024-03-02T13:58:55;113.50;;;77.13;;
51286;SDS011;37364;46.974;18.916;2024-03-02T14:01:25;123.10;;;79.30;;
51286;SDS011;37364;46.974;18.916;2024-03-02T14:03:58;118.88;;;79.13;;
51286;SDS011;37364;46.974;18.916;2024-03-02T14:06:28;122.82;;;77.93;;
51286;SDS011;37364;46.974;18.916;2024-03-02T14:08:58;119.90;;;77.53;;
51286;SDS011;37364;46.974;18.916;2024-03-02T14:11:28;126.60;;;80.75;;
51286;SDS011;37364;46.974;18.916;2024-03-02T14:13:58;123.55;;;82.63;;
51286;SDS011;37364;46.974;18.916;2024-03-02T14:16:29;135.52;;;83.80;;
51286;SDS011;37364;46.974;18.916;2024-03-02T14:19:04;125.70;;;84.05;;
51286;SDS011;37364;46.974;18.916;2024-03-02T14:21:34;133.88;;;89.25;;
51286;SDS011;37364;46.974;18.916;2024-03-02T14:24:04;140.40;;;87.93;;
51286;SDS011;37364;46.974;18.916;2024-03-02T14:26:35;132.60;;;85.13;;
51286;SDS011;37364;46.974;18.916;2024-03-02T14:29:05;115.57;;;77.75;;
51286;SDS011;37364;46.974;18.916;2024-03-02T14:31:36;136.73;;;85.35;;
51286;SDS011;37364;46.974;18.916;2024-03-02T14:34:09;134.77;;;86.22;;
51286;SDS011;37364;46.974;18.916;2024-03-02T14:36:39;138.27;;;85.68;;
51286;SDS011;37364;46.974;18.916;2024-03-02T14:39:10;136.50;;;87.65;;